createdAt,value
2023-01-22T00:00:06.801Z,98034.63
2023-01-22T00:02:36.481Z,98029.34
2023-01-22T00:05:04.795Z,98031.94
2023-01-22T00:07:31.736Z,98037.69
2023-01-22T00:09:59.983Z,98033.06
2023-01-22T00:12:27.614Z,98033.84
2023-01-22T00:14:54.358Z,98034.41
2023-01-22T00:17:21.162Z,98028.19
2023-01-22T00:19:47.926Z,98029.31
2023-01-22T00:22:14.615Z,98035.75
2023-01-22T00:24:41.277Z,98023.41
2023-01-22T00:27:07.954Z,98030.72
2023-01-22T00:29:34.968Z,98041.72
2023-01-22T00:32:01.960Z,98037.34
2023-01-22T00:34:28.926Z,98038.56
2023-01-22T00:36:56.232Z,98040.19
2023-01-22T00:39:22.889Z,98043.84
2023-01-22T00:41:49.933Z,98049.84
2023-01-22T00:44:16.685Z,98051.69
2023-01-22T00:46:43.314Z,98048.75
2023-01-22T00:49:10.018Z,98052.09
2023-01-22T00:51:39.247Z,98052.38
2023-01-22T00:54:05.931Z,98043.59
2023-01-22T00:56:32.632Z,98046.63
2023-01-22T00:58:59.478Z,98054.50
2023-01-22T01:01:26.169Z,98051.16
2023-01-22T01:03:52.844Z,98050.63
2023-01-22T01:06:21.653Z,98059.94
2023-01-22T01:08:49.056Z,98055.50
2023-01-22T01:11:19.347Z,98055.69
2023-01-22T01:13:46.086Z,98058.63
2023-01-22T01:16:18.792Z,98055.94
2023-01-22T01:18:46.000Z,98057.63
2023-01-22T01:21:13.334Z,98064.91
2023-01-22T01:23:40.044Z,98065.75
2023-01-22T01:26:08.014Z,98065.00
2023-01-22T01:28:36.547Z,98062.19
2023-01-22T01:31:08.560Z,98063.59
2023-01-22T01:33:35.400Z,98071.81
2023-01-22T01:36:07.386Z,98075.97
2023-01-22T01:38:34.383Z,98074.38
2023-01-22T01:41:01.186Z,98086.84
2023-01-22T01:43:28.503Z,98088.31
2023-01-22T01:45:57.655Z,98080.75
2023-01-22T01:48:31.679Z,98088.03
2023-01-22T01:51:04.000Z,98093.72
2023-01-22T01:53:31.726Z,98092.25
2023-01-22T01:56:00.923Z,98094.00
2023-01-22T01:58:31.790Z,98096.56
2023-01-22T02:01:05.282Z,98089.97
2023-01-22T02:03:31.995Z,98094.06
2023-01-22T02:05:58.674Z,98080.75
2023-01-22T02:08:25.453Z,98094.41
2023-01-22T02:10:53.930Z,98089.25
2023-01-22T02:13:27.669Z,98090.13
2023-01-22T02:15:54.716Z,98089.88
2023-01-22T02:18:21.454Z,98089.13
2023-01-22T02:20:59.500Z,98081.63
2023-01-22T02:23:27.504Z,98091.94
2023-01-22T02:25:54.254Z,98095.63
2023-01-22T02:28:21.010Z,98094.16
2023-01-22T02:30:47.662Z,98097.25
2023-01-22T02:33:14.401Z,98097.59
2023-01-22T02:35:41.137Z,98095.84
2023-01-22T02:38:07.824Z,98098.44
2023-01-22T02:40:34.599Z,98104.53
2023-01-22T02:43:01.767Z,98110.47
2023-01-22T02:45:28.488Z,98109.44
2023-01-22T02:47:55.112Z,98104.34
2023-01-22T02:50:21.771Z,98105.81
2023-01-22T02:52:48.387Z,98106.47
2023-01-22T02:55:15.131Z,98117.00
2023-01-22T02:57:41.796Z,98107.00
2023-01-22T03:00:09.223Z,98111.19
2023-01-22T03:02:35.852Z,98110.53
2023-01-22T03:05:05.420Z,98109.50
2023-01-22T03:07:42.330Z,98110.13
2023-01-22T03:10:15.412Z,98106.22
2023-01-22T03:13:01.321Z,98106.75
2023-01-22T03:15:47.039Z,98108.84
2023-01-22T03:18:33.125Z,98102.34
2023-01-22T03:21:21.180Z,98107.31
2023-01-22T03:23:50.651Z,98097.16
2023-01-22T03:26:18.241Z,98106.59
2023-01-22T03:28:46.088Z,98098.81
2023-01-22T03:31:14.677Z,98102.91
2023-01-22T03:33:42.115Z,98109.94
2023-01-22T03:36:12.166Z,98108.56
2023-01-22T03:38:38.782Z,98107.06
2023-01-22T03:41:08.233Z,98104.72
2023-01-22T03:43:35.055Z,98095.41
2023-01-22T03:46:15.601Z,98103.19
2023-01-22T03:48:43.251Z,98098.16
2023-01-22T03:51:15.157Z,98104.31
2023-01-22T03:53:43.854Z,98100.03
2023-01-22T03:56:16.813Z,98101.13
2023-01-22T03:58:44.001Z,98106.63
2023-01-22T04:01:13.166Z,98101.66
2023-01-22T04:03:40.669Z,98099.44
2023-01-22T04:06:09.480Z,98112.00
2023-01-22T04:08:37.209Z,98114.13
2023-01-22T04:11:04.066Z,98119.31
2023-01-22T04:13:32.252Z,98116.09
2023-01-22T04:15:59.064Z,98113.22
2023-01-22T04:18:25.823Z,98121.25
2023-01-22T04:20:52.912Z,98122.81
2023-01-22T04:23:21.535Z,98120.19
2023-01-22T04:25:48.792Z,98128.53
2023-01-22T04:28:16.636Z,98117.31
2023-01-22T04:30:45.324Z,98120.94
2023-01-22T04:33:12.597Z,98114.38
2023-01-22T04:35:39.975Z,98124.81
2023-01-22T04:38:07.721Z,98116.22
2023-01-22T04:40:34.307Z,98118.84
2023-01-22T04:43:05.338Z,98120.31
2023-01-22T04:45:32.159Z,98125.41
2023-01-22T04:47:59.881Z,98119.16
2023-01-22T04:50:32.210Z,98120.63
2023-01-22T04:53:00.402Z,98121.44
2023-01-22T04:55:27.982Z,98113.16
2023-01-22T04:57:56.420Z,98109.34
2023-01-22T05:00:24.579Z,98119.34
2023-01-22T05:02:55.475Z,98111.94
2023-01-22T05:05:22.230Z,98112.66
2023-01-22T05:07:48.845Z,98105.44
2023-01-22T05:10:16.181Z,98104.34
2023-01-22T05:12:42.939Z,98122.22
2023-01-22T05:15:23.141Z,98124.19
2023-01-22T05:17:50.624Z,98127.16
2023-01-22T05:20:17.670Z,98126.56
2023-01-22T05:22:44.873Z,98124.66
2023-01-22T05:25:12.092Z,98141.41
2023-01-22T05:27:38.785Z,98143.81
2023-01-22T05:30:06.400Z,98141.59
2023-01-22T05:32:33.028Z,98147.94
2023-01-22T05:34:59.654Z,98140.81
2023-01-22T05:37:26.304Z,98146.19
2023-01-22T05:39:52.939Z,98152.38
2023-01-22T05:42:20.911Z,98153.41
2023-01-22T05:44:47.713Z,98158.84
2023-01-22T05:47:14.358Z,98167.38
2023-01-22T05:49:41.670Z,98162.72
2023-01-22T05:52:10.824Z,98167.50
2023-01-22T05:54:39.770Z,98180.84
2023-01-22T05:57:07.100Z,98174.00
2023-01-22T05:59:34.034Z,98173.38
2023-01-22T06:02:00.882Z,98172.53
2023-01-22T06:04:27.609Z,98177.06
2023-01-22T06:06:54.346Z,98183.28
2023-01-22T06:09:21.043Z,98174.41
2023-01-22T06:11:47.674Z,98176.06
2023-01-22T06:14:14.343Z,98188.75
2023-01-22T06:16:40.936Z,98179.75
2023-01-22T06:19:07.858Z,98181.03
2023-01-22T06:21:34.480Z,98190.19
2023-01-22T06:24:01.096Z,98194.59
2023-01-22T06:26:27.688Z,98193.84
2023-01-22T06:28:55.232Z,98187.25
2023-01-22T06:31:22.044Z,98198.06
2023-01-22T06:33:48.894Z,98206.22
2023-01-22T06:36:15.593Z,98202.25
2023-01-22T06:38:42.172Z,98208.06
2023-01-22T06:41:09.568Z,98214.09
2023-01-22T06:43:37.671Z,98219.38
2023-01-22T06:46:04.726Z,98216.78
2023-01-22T06:48:31.316Z,98218.81
2023-01-22T06:50:59.680Z,98229.28
2023-01-22T06:53:26.741Z,98228.63
2023-01-22T06:55:53.424Z,98233.06
2023-01-22T06:58:20.041Z,98239.09
2023-01-22T07:00:46.756Z,98237.41
2023-01-22T07:03:15.259Z,98232.59
2023-01-22T07:05:42.391Z,98226.41
2023-01-22T07:08:13.219Z,98225.44
2023-01-22T07:10:40.117Z,98221.84
2023-01-22T07:13:07.952Z,98220.50
2023-01-22T07:15:34.570Z,98221.28
2023-01-22T07:18:01.328Z,98223.97
2023-01-22T07:20:27.943Z,98218.63
2023-01-22T07:22:59.158Z,98218.16
2023-01-22T07:25:27.610Z,98218.34
2023-01-22T07:28:04.066Z,98225.19
2023-01-22T07:30:31.223Z,98236.03
2023-01-22T07:33:00.277Z,98236.41
2023-01-22T07:35:27.156Z,98243.06
2023-01-22T07:37:55.376Z,98244.66
2023-01-22T07:40:24.242Z,98244.84
2023-01-22T07:42:51.837Z,98254.81
2023-01-22T07:45:22.364Z,98257.66
2023-01-22T07:47:57.486Z,98259.69
2023-01-22T07:50:27.030Z,98260.16
2023-01-22T07:52:53.851Z,98259.50
2023-01-22T07:55:20.494Z,98272.00
2023-01-22T07:57:47.319Z,98275.22
2023-01-22T08:00:16.195Z,98267.03
2023-01-22T08:02:43.108Z,98274.16
2023-01-22T08:05:13.671Z,98278.59
2023-01-22T08:07:40.342Z,98282.84
2023-01-22T08:10:07.714Z,98286.22
2023-01-22T08:12:36.557Z,98286.75
2023-01-22T08:15:03.547Z,98291.94
2023-01-22T08:17:30.224Z,98292.06
2023-01-22T08:19:56.875Z,98293.16
2023-01-22T08:22:23.466Z,98294.72
2023-01-22T08:24:50.078Z,98293.38
2023-01-22T08:27:16.905Z,98294.97
2023-01-22T08:29:43.541Z,98301.91
2023-01-22T08:32:10.180Z,98307.56
2023-01-22T08:34:36.892Z,98296.84
2023-01-22T08:37:03.509Z,98305.00
2023-01-22T08:39:30.082Z,98307.09
2023-01-22T08:41:57.739Z,98307.75
2023-01-22T08:44:25.385Z,98307.75
2023-01-22T08:46:52.392Z,98302.56
2023-01-22T08:49:21.251Z,98303.84
2023-01-22T08:51:47.889Z,98310.72
2023-01-22T08:54:14.547Z,98313.00
2023-01-22T08:56:41.136Z,98310.09
2023-01-22T08:59:07.746Z,98316.25
2023-01-22T09:01:35.066Z,98317.78
2023-01-22T09:04:01.622Z,98325.41
2023-01-22T09:06:28.245Z,98327.38
2023-01-22T09:08:54.886Z,98322.25
2023-01-22T09:11:21.507Z,98316.94
2023-01-22T09:13:48.136Z,98329.78
2023-01-22T09:16:14.866Z,98335.03
2023-01-22T09:18:41.508Z,98328.38
2023-01-22T09:21:08.511Z,98330.13
2023-01-22T09:23:35.191Z,98328.38
2023-01-22T09:26:01.901Z,98328.84
2023-01-22T09:28:28.517Z,98335.69
2023-01-22T09:30:55.190Z,98343.19
2023-01-22T09:33:21.821Z,98341.59
2023-01-22T09:35:48.458Z,98345.25
2023-01-22T09:38:15.433Z,98337.81
2023-01-22T09:40:57.649Z,98342.63
2023-01-22T09:43:49.425Z,98328.94
2023-01-22T09:46:22.372Z,98334.66
2023-01-22T09:48:53.596Z,98332.78
2023-01-22T09:51:22.282Z,98338.56
2023-01-22T09:53:59.732Z,98337.28
2023-01-22T09:56:33.358Z,98345.94
2023-01-22T09:59:03.345Z,98342.53
2023-01-22T10:01:30.740Z,98338.22
2023-01-22T10:04:03.382Z,98341.09
2023-01-22T10:06:30.275Z,98334.00
2023-01-22T10:09:12.521Z,98336.97
2023-01-22T10:11:39.621Z,98342.50
2023-01-22T10:14:09.341Z,98338.44
2023-01-22T10:16:37.284Z,98339.00
2023-01-22T10:19:23.393Z,98339.50
2023-01-22T10:21:58.248Z,98341.25
2023-01-22T10:24:24.989Z,98338.38
2023-01-22T10:26:54.619Z,98341.59
2023-01-22T10:29:33.450Z,98335.47
2023-01-22T10:32:21.459Z,98340.50
2023-01-22T10:35:01.406Z,98342.50
2023-01-22T10:37:29.272Z,98339.72
2023-01-22T10:39:58.737Z,98342.88
2023-01-22T10:42:29.543Z,98340.97
2023-01-22T10:45:07.889Z,98344.66
2023-01-22T10:47:34.688Z,98342.63
2023-01-22T10:50:12.321Z,98344.50
2023-01-22T10:52:42.350Z,98346.78
2023-01-22T10:55:22.760Z,98348.63
2023-01-22T10:57:55.698Z,98350.06
2023-01-22T11:00:51.982Z,98347.72
2023-01-22T11:03:39.230Z,98343.41
2023-01-22T11:06:17.228Z,98344.88
2023-01-22T11:09:00.738Z,98346.09
2023-01-22T11:11:34.779Z,98345.63
2023-01-22T11:14:15.376Z,98335.44
2023-01-22T11:16:43.191Z,98338.69
2023-01-22T11:19:18.133Z,98335.97
2023-01-22T11:21:54.898Z,98337.25
2023-01-22T11:24:29.448Z,98342.81
2023-01-22T11:27:42.613Z,98346.56
2023-01-22T11:30:40.336Z,98338.03
2023-01-22T11:33:30.050Z,98344.25
2023-01-22T11:36:21.464Z,98341.81
2023-01-22T11:38:56.419Z,98341.34
2023-01-22T11:42:05.708Z,98340.59
2023-01-22T11:45:18.581Z,98335.06
2023-01-22T11:48:03.901Z,98332.16
2023-01-22T11:50:40.601Z,98341.72
2023-01-22T11:53:25.821Z,98337.25
2023-01-22T11:56:10.665Z,98335.84
2023-01-22T11:59:09.515Z,98329.25
2023-01-22T12:01:48.174Z,98335.34
2023-01-22T12:04:43.188Z,98335.38
2023-01-22T12:07:26.769Z,98332.31
2023-01-22T12:10:47.635Z,98321.25
2023-01-22T12:13:57.411Z,98335.75
2023-01-22T12:16:37.170Z,98328.69
2023-01-22T12:19:20.540Z,98334.88
2023-01-22T12:22:11.893Z,98326.28
2023-01-22T12:25:00.609Z,98327.00
2023-01-22T12:27:33.525Z,98331.44
2023-01-22T12:30:15.973Z,98331.88
2023-01-22T12:32:49.266Z,98334.22
2023-01-22T12:35:20.958Z,98330.53
2023-01-22T12:38:16.302Z,98339.63
2023-01-22T12:41:36.430Z,98342.53
2023-01-22T12:44:31.657Z,98339.59
2023-01-22T12:47:32.318Z,98344.34
2023-01-22T12:49:58.911Z,98346.28
2023-01-22T12:52:48.054Z,98344.81
2023-01-22T12:55:35.089Z,98345.31
2023-01-22T12:58:02.550Z,98351.56
2023-01-22T13:00:39.023Z,98352.34
2023-01-22T13:03:33.090Z,98346.91
2023-01-22T13:06:02.603Z,98358.47
2023-01-22T13:08:43.736Z,98353.28
2023-01-22T13:11:26.670Z,98349.66
2023-01-22T13:14:15.990Z,98348.38
2023-01-22T13:16:51.757Z,98356.16
2023-01-22T13:19:28.161Z,98359.84
2023-01-22T13:21:58.986Z,98354.06
2023-01-22T13:24:25.656Z,98358.63
2023-01-22T13:26:54.981Z,98361.00
2023-01-22T13:29:34.027Z,98362.16
2023-01-22T13:32:03.522Z,98361.13
2023-01-22T13:34:30.684Z,98369.75
2023-01-22T13:36:58.144Z,98363.41
2023-01-22T13:39:30.127Z,98364.84
2023-01-22T13:41:59.699Z,98370.97
2023-01-22T13:44:32.438Z,98375.09
2023-01-22T13:46:59.808Z,98371.50
2023-01-22T13:49:28.945Z,98382.75
2023-01-22T13:51:59.222Z,98374.59
2023-01-22T13:54:43.106Z,98376.06
2023-01-22T13:57:14.519Z,98373.13
2023-01-22T14:00:01.249Z,98384.84
2023-01-22T14:02:34.607Z,98387.59
2023-01-22T14:05:02.513Z,98394.38
2023-01-22T14:07:32.032Z,98396.56
2023-01-22T14:10:12.256Z,98399.06
2023-01-22T14:12:38.969Z,98400.63
2023-01-22T14:15:21.225Z,98405.59
2023-01-22T14:17:49.810Z,98403.00
2023-01-22T14:20:17.685Z,98400.31
2023-01-22T14:22:44.599Z,98404.44
2023-01-22T14:25:11.178Z,98406.31
2023-01-22T14:27:44.275Z,98409.19
2023-01-22T14:30:14.612Z,98409.50
2023-01-22T14:32:43.203Z,98408.69
2023-01-22T14:35:19.135Z,98412.69
2023-01-22T14:37:46.393Z,98411.88
2023-01-22T14:40:14.656Z,98407.00
2023-01-22T14:42:41.314Z,98415.31
2023-01-22T14:45:09.369Z,98416.94
2023-01-22T14:47:36.135Z,98422.06
2023-01-22T14:50:03.654Z,98418.69
2023-01-22T14:52:30.242Z,98427.03
2023-01-22T14:54:56.948Z,98433.63
2023-01-22T14:57:25.390Z,98431.53
2023-01-22T14:59:52.170Z,98434.38
2023-01-22T15:02:18.991Z,98419.78
2023-01-22T15:04:45.793Z,98435.56
2023-01-22T15:07:12.434Z,98436.34
2023-01-22T15:09:39.655Z,98429.25
2023-01-22T15:12:07.017Z,98436.34
2023-01-22T15:14:33.665Z,98440.63
2023-01-22T15:17:00.483Z,98438.59
2023-01-22T15:19:27.171Z,98451.19
2023-01-22T15:21:53.931Z,98453.81
2023-01-22T15:24:20.681Z,98459.72
2023-01-22T15:26:47.310Z,98462.31
2023-01-22T15:29:14.760Z,98468.19
2023-01-22T15:31:41.718Z,98465.22
2023-01-22T15:34:08.743Z,98466.56
2023-01-22T15:36:36.937Z,98458.84
2023-01-22T15:39:03.635Z,98458.56
2023-01-22T15:41:32.328Z,98457.72
2023-01-22T15:44:01.257Z,98459.63
2023-01-22T15:46:30.763Z,98465.94
2023-01-22T15:48:58.674Z,98470.28
2023-01-22T15:51:26.350Z,98471.16
2023-01-22T15:54:00.841Z,98476.13
2023-01-22T15:56:30.258Z,98475.56
2023-01-22T15:58:57.774Z,98467.41
2023-01-22T16:01:25.860Z,98473.50
2023-01-22T16:03:53.330Z,98474.53
2023-01-22T16:06:25.866Z,98475.38
2023-01-22T16:08:53.470Z,98477.22
2023-01-22T16:11:21.146Z,98478.09
2023-01-22T16:13:47.794Z,98481.72
2023-01-22T16:16:26.071Z,98480.09
2023-01-22T16:18:53.318Z,98484.56
2023-01-22T16:21:21.327Z,98489.66
2023-01-22T16:23:48.780Z,98489.19
2023-01-22T16:26:20.783Z,98496.69
2023-01-22T16:28:49.609Z,98495.13
2023-01-22T16:31:19.185Z,98492.63
2023-01-22T16:33:47.998Z,98493.75
2023-01-22T16:36:17.369Z,98500.78
2023-01-22T16:38:44.503Z,98501.91
2023-01-22T16:41:25.559Z,98496.06
2023-01-22T16:44:01.943Z,98491.22
2023-01-22T16:46:31.489Z,98504.13
2023-01-22T16:49:01.062Z,98502.16
2023-01-22T16:51:33.438Z,98508.22
2023-01-22T16:54:00.129Z,98504.03
2023-01-22T16:56:26.677Z,98507.72
2023-01-22T16:58:53.302Z,98506.25
2023-01-22T17:01:20.868Z,98509.41
2023-01-22T17:03:47.678Z,98511.84
2023-01-22T17:06:23.118Z,98518.13
2023-01-22T17:08:51.012Z,98505.53
2023-01-22T17:11:18.260Z,98506.25
2023-01-22T17:13:45.355Z,98504.22
2023-01-22T17:16:12.973Z,98503.94
2023-01-22T17:18:39.841Z,98498.38
2023-01-22T17:21:08.280Z,98506.28
2023-01-22T17:23:35.103Z,98515.81
2023-01-22T17:26:06.052Z,98521.56
2023-01-22T17:28:35.467Z,98527.25
2023-01-22T17:31:06.866Z,98527.69
2023-01-22T17:33:33.948Z,98528.53
2023-01-22T17:36:00.945Z,98534.00
2023-01-22T17:38:29.099Z,98541.50
2023-01-22T17:40:56.969Z,98539.19
2023-01-22T17:43:24.339Z,98545.88
2023-01-22T17:45:51.024Z,98542.72
2023-01-22T17:48:17.645Z,98544.28
2023-01-22T17:50:44.322Z,98557.91
2023-01-22T17:53:11.047Z,98564.28
2023-01-22T17:55:38.005Z,98563.66
2023-01-22T17:58:04.627Z,98560.88
2023-01-22T18:00:31.668Z,98563.00
2023-01-22T18:02:58.329Z,98568.91
2023-01-22T18:05:26.664Z,98567.38
2023-01-22T18:07:53.229Z,98576.44
2023-01-22T18:10:21.263Z,98587.84
2023-01-22T18:12:49.132Z,98584.31
2023-01-22T18:15:15.884Z,98586.38
2023-01-22T18:17:42.809Z,98582.72
2023-01-22T18:20:10.253Z,98584.97
2023-01-22T18:22:36.871Z,98582.19
2023-01-22T18:25:03.785Z,98584.97
2023-01-22T18:27:30.399Z,98586.44
2023-01-22T18:29:56.988Z,98588.50
2023-01-22T18:32:24.330Z,98589.63
2023-01-22T18:34:51.015Z,98591.75
2023-01-22T18:37:17.654Z,98597.03
2023-01-22T18:39:44.302Z,98607.59
2023-01-22T18:42:10.894Z,98603.06
2023-01-22T18:44:38.837Z,98609.25
2023-01-22T18:47:11.025Z,98605.81
2023-01-22T18:49:37.613Z,98606.00
2023-01-22T18:52:04.256Z,98610.16
2023-01-22T18:54:30.936Z,98619.63
2023-01-22T18:56:57.584Z,98615.47
2023-01-22T18:59:24.447Z,98619.63
2023-01-22T19:01:51.851Z,98627.81
2023-01-22T19:04:21.844Z,98636.50
2023-01-22T19:06:53.490Z,98633.53
2023-01-22T19:09:21.241Z,98641.47
2023-01-22T19:11:49.685Z,98640.56
2023-01-22T19:14:19.495Z,98642.34
2023-01-22T19:16:48.859Z,98637.44
2023-01-22T19:19:16.201Z,98631.78
2023-01-22T19:21:47.135Z,98622.81
2023-01-22T19:24:16.152Z,98625.47
2023-01-22T19:26:46.437Z,98634.84
2023-01-22T19:29:17.237Z,98641.59
2023-01-22T19:31:48.360Z,98650.53
2023-01-22T19:34:23.208Z,98655.13
2023-01-22T19:36:52.532Z,98649.66
2023-01-22T19:39:20.383Z,98662.31
2023-01-22T19:41:47.260Z,98660.03
2023-01-22T19:44:13.893Z,98670.00
2023-01-22T19:46:40.926Z,98676.94
2023-01-22T19:49:08.694Z,98671.78
2023-01-22T19:51:35.683Z,98674.94
2023-01-22T19:54:04.635Z,98678.00
2023-01-22T19:56:34.394Z,98668.66
2023-01-22T19:59:07.158Z,98663.19
2023-01-22T20:01:35.075Z,98668.22
2023-01-22T20:04:01.860Z,98654.56
2023-01-22T20:06:28.612Z,98646.50
2023-01-22T20:08:57.114Z,98658.00
2023-01-22T20:11:24.664Z,98658.75
2023-01-22T20:13:51.410Z,98655.59
2023-01-22T20:16:21.913Z,98661.44
2023-01-22T20:18:49.542Z,98663.84
2023-01-22T20:21:21.284Z,98663.38
2023-01-22T20:23:50.752Z,98658.09
2023-01-22T20:26:19.036Z,98654.69
2023-01-22T20:28:46.406Z,98659.38
2023-01-22T20:31:17.343Z,98661.72
2023-01-22T20:33:44.149Z,98665.03
2023-01-22T20:36:15.097Z,98672.19
2023-01-22T20:38:45.805Z,98686.38
2023-01-22T20:41:14.065Z,98679.06
2023-01-22T20:43:42.965Z,98672.25
2023-01-22T20:46:22.812Z,98676.59
2023-01-22T20:48:51.350Z,98684.28
2023-01-22T20:51:24.522Z,98672.66
2023-01-22T20:53:54.972Z,98682.41
2023-01-22T20:56:25.477Z,98685.03
2023-01-22T20:58:57.437Z,98696.44
2023-01-22T21:01:24.910Z,98701.53
2023-01-22T21:03:52.231Z,98698.22
2023-01-22T21:06:20.748Z,98695.06
2023-01-22T21:08:51.304Z,98689.50
2023-01-22T21:11:22.190Z,98684.50
2023-01-22T21:13:50.972Z,98684.44
2023-01-22T21:16:23.192Z,98688.09
2023-01-22T21:18:49.929Z,98686.34
2023-01-22T21:21:19.756Z,98676.72
2023-01-22T21:23:52.152Z,98687.06
2023-01-22T21:26:22.965Z,98696.97
2023-01-22T21:28:53.208Z,98703.25
2023-01-22T21:31:21.650Z,98715.31
2023-01-22T21:33:48.819Z,98718.59
2023-01-22T21:36:18.404Z,98723.88
2023-01-22T21:38:49.093Z,98723.63
2023-01-22T21:41:17.688Z,98730.47
2023-01-22T21:44:05.052Z,98733.25
2023-01-22T21:46:38.978Z,98740.47
2023-01-22T21:49:21.682Z,98732.84
2023-01-22T21:51:56.709Z,98733.31
2023-01-22T21:54:25.016Z,98736.00
2023-01-22T21:56:52.350Z,98732.50
2023-01-22T21:59:19.456Z,98730.16
2023-01-22T22:01:46.785Z,98732.00
2023-01-22T22:04:15.019Z,98730.81
2023-01-22T22:06:42.199Z,98721.63
2023-01-22T22:09:17.549Z,98733.72
2023-01-22T22:11:44.874Z,98745.06
2023-01-22T22:14:12.712Z,98735.63
2023-01-22T22:16:39.449Z,98746.94
2023-01-22T22:19:07.535Z,98751.56
2023-01-22T22:21:34.485Z,98748.41
2023-01-22T22:24:01.227Z,98741.56
2023-01-22T22:26:28.003Z,98748.59
2023-01-22T22:28:54.812Z,98746.94
2023-01-22T22:31:22.793Z,98758.13
2023-01-22T22:33:52.221Z,98756.63
2023-01-22T22:36:22.032Z,98758.56
2023-01-22T22:38:48.970Z,98752.69
2023-01-22T22:41:22.607Z,98750.47
2023-01-22T22:43:53.415Z,98751.66
2023-01-22T22:46:23.014Z,98754.94
2023-01-22T22:48:50.775Z,98749.53
2023-01-22T22:51:23.529Z,98750.31
2023-01-22T22:53:55.805Z,98751.56
2023-01-22T22:56:22.959Z,98751.09
2023-01-22T22:58:49.674Z,98748.25
2023-01-22T23:01:21.787Z,98751.09
2023-01-22T23:03:48.896Z,98751.56
2023-01-22T23:06:18.817Z,98758.72
2023-01-22T23:08:52.294Z,98768.13
2023-01-22T23:11:21.733Z,98769.81
2023-01-22T23:13:52.142Z,98764.53
2023-01-22T23:16:21.833Z,98768.81
2023-01-22T23:18:51.249Z,98778.59
2023-01-22T23:21:23.859Z,98777.59
2023-01-22T23:23:51.988Z,98772.22
2023-01-22T23:26:29.959Z,98775.47
2023-01-22T23:28:58.690Z,98777.03
2023-01-22T23:31:26.457Z,98777.38
2023-01-22T23:33:54.975Z,98775.34
2023-01-22T23:36:22.298Z,98774.78
2023-01-22T23:38:49.348Z,98780.47
2023-01-22T23:41:17.580Z,98781.97
2023-01-22T23:43:44.688Z,98782.00
2023-01-22T23:46:14.721Z,98777.88
2023-01-22T23:48:41.882Z,98773.34
2023-01-22T23:51:09.447Z,98772.00
2023-01-22T23:53:37.645Z,98772.03
2023-01-22T23:56:05.406Z,98769.31
2023-01-22T23:58:33.068Z,98770.69
